sensor_id;sensor_type;location;lat;lon;timestamp;pressure;altitude;pressure_sealevel;temperature;humidity
74633;BME280;63139;52.018;8.552;2022-12-28T00:01:47;100731.06;;;4.69;77.80
74633;BME280;63139;52.018;8.552;2022-12-28T00:04:16;100734.53;;;4.69;78.04
74633;BME280;63139;52.018;8.552;2022-12-28T00:06:44;100718.81;;;4.69;78.22
74633;BME280;63139;52.018;8.552;2022-12-28T00:09:12;100716.91;;;4.72;77.98
74633;BME280;63139;52.018;8.552;2022-12-28T00:11:40;100705.56;;;4.71;77.72
74633;BME280;63139;52.018;8.552;2022-12-28T00:14:08;100708.19;;;4.71;77.94
74633;BME280;63139;52.018;8.552;2022-12-28T00:16:38;100697.31;;;4.76;78.00
74633;BME280;63139;52.018;8.552;2022-12-28T00:19:09;100687.66;;;4.76;77.54
74633;BME280;63139;52.018;8.552;2022-12-28T00:21:39;100675.25;;;4.78;77.58
74633;BME280;63139;52.018;8.552;2022-12-28T00:24:10;100697.78;;;4.81;77.41
74633;BME280;63139;52.018;8.552;2022-12-28T00:26:41;100686.91;;;4.85;77.71
74633;BME280;63139;52.018;8.552;2022-12-28T00:29:09;100686.53;;;4.90;78.15
74633;BME280;63139;52.018;8.552;2022-12-28T00:31:37;100682.81;;;4.92;77.61
74633;BME280;63139;52.018;8.552;2022-12-28T00:34:05;100679.13;;;4.95;77.33
74633;BME280;63139;52.018;8.552;2022-12-28T00:36:33;100662.03;;;5.00;77.54
74633;BME280;63139;52.018;8.552;2022-12-28T00:39:22;100658.34;;;5.03;77.55
74633;BME280;63139;52.018;8.552;2022-12-28T00:41:50;100654.47;;;5.07;77.12
74633;BME280;63139;52.018;8.552;2022-12-28T00:44:17;100647.31;;;5.09;76.92
74633;BME280;63139;52.018;8.552;2022-12-28T00:46:47;100644.19;;;5.15;77.09
74633;BME280;63139;52.018;8.552;2022-12-28T00:49:16;100636.63;;;5.22;76.88
74633;BME280;63139;52.018;8.552;2022-12-28T00:51:44;100629.16;;;5.27;77.18
74633;BME280;63139;52.018;8.552;2022-12-28T00:54:12;100617.34;;;5.32;76.73
74633;BME280;63139;52.018;8.552;2022-12-28T00:56:41;100610.97;;;5.35;75.82
74633;BME280;63139;52.018;8.552;2022-12-28T00:59:09;100610.72;;;5.38;76.25
74633;BME280;63139;52.018;8.552;2022-12-28T01:01:37;100598.44;;;5.38;76.53
74633;BME280;63139;52.018;8.552;2022-12-28T01:04:05;100598.97;;;5.42;76.65
74633;BME280;63139;52.018;8.552;2022-12-28T01:06:33;100593.75;;;5.42;76.09
74633;BME280;63139;52.018;8.552;2022-12-28T01:09:02;100591.09;;;5.42;76.25
74633;BME280;63139;52.018;8.552;2022-12-28T01:11:30;100591.56;;;5.47;76.23
74633;BME280;63139;52.018;8.552;2022-12-28T01:14:00;100595.69;;;5.50;76.19
74633;BME280;63139;52.018;8.552;2022-12-28T01:16:30;100581.63;;;5.51;75.66
74633;BME280;63139;52.018;8.552;2022-12-28T01:19:00;100585.91;;;5.52;76.51
74633;BME280;63139;52.018;8.552;2022-12-28T01:21:30;100589.38;;;5.52;76.22
74633;BME280;63139;52.018;8.552;2022-12-28T01:24:00;100596.16;;;5.55;76.00
74633;BME280;63139;52.018;8.552;2022-12-28T01:26:30;100593.94;;;5.60;76.12
74633;BME280;63139;52.018;8.552;2022-12-28T01:28:59;100576.00;;;5.65;76.25
74633;BME280;63139;52.018;8.552;2022-12-28T01:31:31;100568.69;;;5.68;75.93
74633;BME280;63139;52.018;8.552;2022-12-28T01:33:59;100569.81;;;5.75;76.08
74633;BME280;63139;52.018;8.552;2022-12-28T01:36:29;100574.38;;;5.83;75.94
74633;BME280;63139;52.018;8.552;2022-12-28T01:38:59;100566.81;;;5.90;75.20
74633;BME280;63139;52.018;8.552;2022-12-28T01:41:30;100565.44;;;5.95;75.54
74633;BME280;63139;52.018;8.552;2022-12-28T01:44:40;100560.47;;;6.02;74.81
74633;BME280;63139;52.018;8.552;2022-12-28T01:47:12;100559.25;;;6.06;74.54
74633;BME280;63139;52.018;8.552;2022-12-28T01:49:45;100551.75;;;6.11;75.14
74633;BME280;63139;52.018;8.552;2022-12-28T01:52:17;100552.03;;;6.17;74.94
74633;BME280;63139;52.018;8.552;2022-12-28T01:54:50;100544.03;;;6.19;75.19
74633;BME280;63139;52.018;8.552;2022-12-28T01:57:23;100549.69;;;6.24;75.48
74633;BME280;63139;52.018;8.552;2022-12-28T01:59:58;100546.22;;;6.23;75.04
74633;BME280;63139;52.018;8.552;2022-12-28T02:02:37;100525.75;;;6.27;75.96
74633;BME280;63139;52.018;8.552;2022-12-28T02:05:07;100531.56;;;6.31;75.92
74633;BME280;63139;52.018;8.552;2022-12-28T02:07:39;100529.63;;;6.33;75.61
74633;BME280;63139;52.018;8.552;2022-12-28T02:10:10;100527.81;;;6.33;76.02
74633;BME280;63139;52.018;8.552;2022-12-28T02:12:58;100528.66;;;6.34;76.46
74633;BME280;63139;52.018;8.552;2022-12-28T02:15:28;100520.91;;;6.32;76.82
74633;BME280;63139;52.018;8.552;2022-12-28T02:17:56;100507.63;;;6.34;77.17
74633;BME280;63139;52.018;8.552;2022-12-28T02:20:29;100509.16;;;6.27;77.41
74633;BME280;63139;52.018;8.552;2022-12-28T02:23:26;100502.09;;;6.27;77.45
74633;BME280;63139;52.018;8.552;2022-12-28T02:26:27;100499.47;;;6.27;77.49
74633;BME280;63139;52.018;8.552;2022-12-28T02:32:03;100474.41;;;6.23;77.60
74633;BME280;63139;52.018;8.552;2022-12-28T02:34:40;100478.19;;;6.20;78.04
74633;BME280;63139;52.018;8.552;2022-12-28T02:37:15;100479.00;;;6.21;78.04
74633;BME280;63139;52.018;8.552;2022-12-28T02:39:47;100471.13;;;6.21;78.02
74633;BME280;63139;52.018;8.552;2022-12-28T02:42:19;100472.78;;;6.22;78.26
74633;BME280;63139;52.018;8.552;2022-12-28T02:44:49;100458.50;;;6.24;78.04
74633;BME280;63139;52.018;8.552;2022-12-28T02:47:35;100451.47;;;6.25;78.31
74633;BME280;63139;52.018;8.552;2022-12-28T02:50:22;100439.84;;;6.28;78.26
74633;BME280;63139;52.018;8.552;2022-12-28T02:53:24;100448.44;;;6.30;78.21
74633;BME280;63139;52.018;8.552;2022-12-28T02:56:09;100449.94;;;6.32;78.66
74633;BME280;63139;52.018;8.552;2022-12-28T02:59:05;100437.75;;;6.31;79.45
74633;BME280;63139;52.018;8.552;2022-12-28T03:01:58;100425.16;;;6.35;79.36
74633;BME280;63139;52.018;8.552;2022-12-28T03:04:36;100412.28;;;6.32;79.67
74633;BME280;63139;52.018;8.552;2022-12-28T03:07:15;100409.66;;;6.32;79.63
74633;BME280;63139;52.018;8.552;2022-12-28T03:10:09;100408.81;;;6.31;79.63
74633;BME280;63139;52.018;8.552;2022-12-28T03:12:42;100392.22;;;6.31;79.54
74633;BME280;63139;52.018;8.552;2022-12-28T03:15:16;100364.31;;;6.30;80.23
74633;BME280;63139;52.018;8.552;2022-12-28T03:18:02;100366.94;;;6.30;79.74
74633;BME280;63139;52.018;8.552;2022-12-28T03:20:50;100345.91;;;6.30;79.67
74633;BME280;63139;52.018;8.552;2022-12-28T03:23:38;100352.97;;;6.29;79.73
74633;BME280;63139;52.018;8.552;2022-12-28T03:26:26;100339.13;;;6.27;79.58
74633;BME280;63139;52.018;8.552;2022-12-28T03:29:15;100319.75;;;6.28;79.61
74633;BME280;63139;52.018;8.552;2022-12-28T03:32:03;100318.91;;;6.28;79.58
74633;BME280;63139;52.018;8.552;2022-12-28T03:34:33;100319.63;;;6.30;79.82
74633;BME280;63139;52.018;8.552;2022-12-28T03:37:06;100326.34;;;6.32;79.63
74633;BME280;63139;52.018;8.552;2022-12-28T03:39:39;100315.97;;;6.31;79.60
74633;BME280;63139;52.018;8.552;2022-12-28T03:42:13;100307.00;;;6.33;79.42
74633;BME280;63139;52.018;8.552;2022-12-28T03:45:05;100298.50;;;6.39;79.30
74633;BME280;63139;52.018;8.552;2022-12-28T03:47:37;100285.09;;;6.42;78.95
74633;BME280;63139;52.018;8.552;2022-12-28T03:50:10;100289.22;;;6.45;79.07
74633;BME280;63139;52.018;8.552;2022-12-28T03:52:38;100288.41;;;6.44;78.71
74633;BME280;63139;52.018;8.552;2022-12-28T03:55:07;100277.56;;;6.47;79.17
74633;BME280;63139;52.018;8.552;2022-12-28T03:57:35;100285.19;;;6.50;78.88
74633;BME280;63139;52.018;8.552;2022-12-28T04:00:08;100279.78;;;6.52;78.83
74633;BME280;63139;52.018;8.552;2022-12-28T04:02:41;100263.41;;;6.58;78.82
74633;BME280;63139;52.018;8.552;2022-12-28T04:05:11;100268.34;;;6.61;78.56
74633;BME280;63139;52.018;8.552;2022-12-28T04:07:39;100263.50;;;6.66;78.48
74633;BME280;63139;52.018;8.552;2022-12-28T04:10:08;100258.47;;;6.73;78.33
74633;BME280;63139;52.018;8.552;2022-12-28T04:12:36;100258.97;;;6.76;78.35
74633;BME280;63139;52.018;8.552;2022-12-28T04:15:23;100250.06;;;6.87;78.33
74633;BME280;63139;52.018;8.552;2022-12-28T04:17:51;100246.13;;;6.91;78.17
74633;BME280;63139;52.018;8.552;2022-12-28T04:20:20;100253.59;;;6.95;77.59
74633;BME280;63139;52.018;8.552;2022-12-28T04:22:49;100243.59;;;6.99;77.83
74633;BME280;63139;52.018;8.552;2022-12-28T04:25:17;100236.22;;;7.03;77.87
74633;BME280;63139;52.018;8.552;2022-12-28T04:27:46;100241.84;;;7.08;77.84
74633;BME280;63139;52.018;8.552;2022-12-28T04:30:39;100229.22;;;7.11;77.93
74633;BME280;63139;52.018;8.552;2022-12-28T04:33:07;100224.47;;;7.15;78.61
74633;BME280;63139;52.018;8.552;2022-12-28T04:35:38;100222.66;;;7.15;78.82
74633;BME280;63139;52.018;8.552;2022-12-28T04:38:06;100231.25;;;7.17;79.20
74633;BME280;63139;52.018;8.552;2022-12-28T04:40:33;100227.94;;;7.15;79.02
74633;BME280;63139;52.018;8.552;2022-12-28T04:43:01;100224.31;;;7.16;79.68
74633;BME280;63139;52.018;8.552;2022-12-28T04:45:29;100209.50;;;7.15;79.24
74633;BME280;63139;52.018;8.552;2022-12-28T04:47:57;100217.25;;;7.17;79.30
74633;BME280;63139;52.018;8.552;2022-12-28T04:50:25;100215.47;;;7.17;79.06
74633;BME280;63139;52.018;8.552;2022-12-28T04:52:54;100221.22;;;7.21;79.17
74633;BME280;63139;52.018;8.552;2022-12-28T04:55:22;100211.53;;;7.21;79.20
74633;BME280;63139;52.018;8.552;2022-12-28T04:57:59;100201.00;;;7.21;78.67
74633;BME280;63139;52.018;8.552;2022-12-28T05:00:27;100208.59;;;7.24;78.76
74633;BME280;63139;52.018;8.552;2022-12-28T05:02:57;100200.69;;;7.24;78.95
74633;BME280;63139;52.018;8.552;2022-12-28T05:05:25;100202.34;;;7.25;79.41
74633;BME280;63139;52.018;8.552;2022-12-28T05:07:52;100201.53;;;7.25;79.67
74633;BME280;63139;52.018;8.552;2022-12-28T05:10:22;100203.97;;;7.26;79.48
74633;BME280;63139;52.018;8.552;2022-12-28T05:12:49;100207.78;;;7.24;79.54
74633;BME280;63139;52.018;8.552;2022-12-28T05:15:17;100198.91;;;7.25;79.37
74633;BME280;63139;52.018;8.552;2022-12-28T05:17:45;100196.09;;;7.26;79.67
74633;BME280;63139;52.018;8.552;2022-12-28T05:20:12;100194.28;;;7.27;79.67
74633;BME280;63139;52.018;8.552;2022-12-28T05:22:41;100195.94;;;7.28;79.83
74633;BME280;63139;52.018;8.552;2022-12-28T05:25:09;100191.50;;;7.28;80.08
74633;BME280;63139;52.018;8.552;2022-12-28T05:27:38;100179.16;;;7.29;80.81
74633;BME280;63139;52.018;8.552;2022-12-28T05:30:07;100189.00;;;7.27;80.79
74633;BME280;63139;52.018;8.552;2022-12-28T05:32:34;100187.06;;;7.29;81.11
74633;BME280;63139;52.018;8.552;2022-12-28T05:35:02;100197.75;;;7.27;81.64
74633;BME280;63139;52.018;8.552;2022-12-28T05:37:30;100197.09;;;7.25;82.02
74633;BME280;63139;52.018;8.552;2022-12-28T05:39:58;100188.50;;;7.23;82.06
74633;BME280;63139;52.018;8.552;2022-12-28T05:42:27;100184.91;;;7.24;81.89
74633;BME280;63139;52.018;8.552;2022-12-28T05:44:56;100191.81;;;7.25;82.06
74633;BME280;63139;52.018;8.552;2022-12-28T05:47:23;100188.38;;;7.25;83.03
74633;BME280;63139;52.018;8.552;2022-12-28T05:49:51;100178.28;;;7.20;83.06
74633;BME280;63139;52.018;8.552;2022-12-28T05:52:19;100187.00;;;7.21;83.26
74633;BME280;63139;52.018;8.552;2022-12-28T05:54:46;100190.59;;;7.20;83.39
74633;BME280;63139;52.018;8.552;2022-12-28T05:57:14;100185.53;;;7.18;83.67
74633;BME280;63139;52.018;8.552;2022-12-28T05:59:42;100176.94;;;7.16;83.98
74633;BME280;63139;52.018;8.552;2022-12-28T06:02:11;100171.69;;;7.16;84.41
74633;BME280;63139;52.018;8.552;2022-12-28T06:04:39;100164.75;;;7.15;84.18
74633;BME280;63139;52.018;8.552;2022-12-28T06:07:06;100173.34;;;7.17;84.52
74633;BME280;63139;52.018;8.552;2022-12-28T06:09:34;100176.25;;;7.14;84.71
74633;BME280;63139;52.018;8.552;2022-12-28T06:12:02;100168.50;;;7.13;86.07
74633;BME280;63139;52.018;8.552;2022-12-28T06:14:30;100163.72;;;7.08;85.60
74633;BME280;63139;52.018;8.552;2022-12-28T06:16:58;100159.28;;;7.09;85.52
74633;BME280;63139;52.018;8.552;2022-12-28T06:19:27;100165.53;;;7.08;85.86
74633;BME280;63139;52.018;8.552;2022-12-28T06:21:54;100169.81;;;7.09;85.74
74633;BME280;63139;52.018;8.552;2022-12-28T06:24:22;100155.81;;;7.08;85.52
74633;BME280;63139;52.018;8.552;2022-12-28T06:26:50;100154.84;;;7.09;86.20
74633;BME280;63139;52.018;8.552;2022-12-28T06:29:18;100158.16;;;7.11;85.60
74633;BME280;63139;52.018;8.552;2022-12-28T06:31:46;100140.53;;;7.12;86.10
74633;BME280;63139;52.018;8.552;2022-12-28T06:34:16;100150.75;;;7.15;85.24
74633;BME280;63139;52.018;8.552;2022-12-28T06:36:45;100148.66;;;7.18;85.47
74633;BME280;63139;52.018;8.552;2022-12-28T06:39:16;100138.13;;;7.18;85.47
74633;BME280;63139;52.018;8.552;2022-12-28T06:41:43;100147.34;;;7.22;85.53
74633;BME280;63139;52.018;8.552;2022-12-28T06:44:12;100145.41;;;7.24;85.96
74633;BME280;63139;52.018;8.552;2022-12-28T06:46:40;100143.59;;;7.25;85.97
74633;BME280;63139;52.018;8.552;2022-12-28T06:49:08;100141.63;;;7.27;85.74
74633;BME280;63139;52.018;8.552;2022-12-28T06:51:37;100150.06;;;7.30;85.74
74633;BME280;63139;52.018;8.552;2022-12-28T06:54:08;100152.69;;;7.30;85.91
74633;BME280;63139;52.018;8.552;2022-12-28T06:56:36;100143.66;;;7.33;86.18
74633;BME280;63139;52.018;8.552;2022-12-28T06:59:05;100150.41;;;7.35;86.10
74633;BME280;63139;52.018;8.552;2022-12-28T07:01:35;100149.13;;;7.39;85.64
74633;BME280;63139;52.018;8.552;2022-12-28T07:04:04;100151.75;;;7.39;85.81
74633;BME280;63139;52.018;8.552;2022-12-28T07:06:35;100144.50;;;7.41;86.10
74633;BME280;63139;52.018;8.552;2022-12-28T07:09:05;100148.78;;;7.43;85.72
74633;BME280;63139;52.018;8.552;2022-12-28T07:11:35;100146.00;;;7.44;85.68
74633;BME280;63139;52.018;8.552;2022-12-28T07:14:04;100143.06;;;7.47;85.81
74633;BME280;63139;52.018;8.552;2022-12-28T07:16:32;100142.91;;;7.49;85.65
74633;BME280;63139;52.018;8.552;2022-12-28T07:18:59;100140.94;;;7.51;85.33
74633;BME280;63139;52.018;8.552;2022-12-28T07:21:29;100143.28;;;7.54;85.56
74633;BME280;63139;52.018;8.552;2022-12-28T07:23:57;100139.81;;;7.53;85.74
74633;BME280;63139;52.018;8.552;2022-12-28T07:26:27;100126.00;;;7.59;85.34
74633;BME280;63139;52.018;8.552;2022-12-28T07:28:58;100112.16;;;7.57;85.51
74633;BME280;63139;52.018;8.552;2022-12-28T07:31:28;100125.84;;;7.61;85.60
74633;BME280;63139;52.018;8.552;2022-12-28T07:33:57;100123.91;;;7.63;85.84
74633;BME280;63139;52.018;8.552;2022-12-28T07:36:27;100134.25;;;7.64;85.30
74633;BME280;63139;52.018;8.552;2022-12-28T07:38:55;100129.81;;;7.65;85.56
74633;BME280;63139;52.018;8.552;2022-12-28T07:41:24;100135.59;;;7.68;85.68
74633;BME280;63139;52.018;8.552;2022-12-28T07:43:53;100125.22;;;7.67;86.33
74633;BME280;63139;52.018;8.552;2022-12-28T07:46:24;100131.16;;;7.69;85.92
74633;BME280;63139;52.018;8.552;2022-12-28T07:48:52;100122.59;;;7.67;86.27
74633;BME280;63139;52.018;8.552;2022-12-28T07:51:22;100137.25;;;7.69;86.29
74633;BME280;63139;52.018;8.552;2022-12-28T07:53:51;100127.38;;;7.71;85.54
74633;BME280;63139;52.018;8.552;2022-12-28T07:56:19;100131.50;;;7.74;85.56
74633;BME280;63139;52.018;8.552;2022-12-28T07:58:48;100132.84;;;7.78;85.42
74633;BME280;63139;52.018;8.552;2022-12-28T08:01:17;100141.25;;;7.82;85.10
74633;BME280;63139;52.018;8.552;2022-12-28T08:03:46;100127.78;;;7.85;84.88
74633;BME280;63139;52.018;8.552;2022-12-28T08:06:16;100138.81;;;7.88;84.77
74633;BME280;63139;52.018;8.552;2022-12-28T08:08:47;100140.31;;;7.91;84.58
74633;BME280;63139;52.018;8.552;2022-12-28T08:11:16;100122.88;;;7.98;84.28
74633;BME280;63139;52.018;8.552;2022-12-28T08:13:46;100126.47;;;7.97;84.44
74633;BME280;63139;52.018;8.552;2022-12-28T08:16:15;100120.72;;;8.01;84.27
74633;BME280;63139;52.018;8.552;2022-12-28T08:18:44;100128.47;;;8.03;84.13
74633;BME280;63139;52.018;8.552;2022-12-28T08:21:16;100128.66;;;8.09;83.76
74633;BME280;63139;52.018;8.552;2022-12-28T08:23:44;100129.03;;;8.14;83.76
74633;BME280;63139;52.018;8.552;2022-12-28T08:26:14;100120.78;;;8.17;83.61
74633;BME280;63139;52.018;8.552;2022-12-28T08:28:44;100123.91;;;8.21;83.20
74633;BME280;63139;52.018;8.552;2022-12-28T08:31:13;100123.28;;;8.27;83.31
74633;BME280;63139;52.018;8.552;2022-12-28T08:33:42;100127.56;;;8.28;83.28
74633;BME280;63139;52.018;8.552;2022-12-28T08:36:10;100130.03;;;8.30;83.30
74633;BME280;63139;52.018;8.552;2022-12-28T08:38:40;100131.38;;;8.34;83.17
74633;BME280;63139;52.018;8.552;2022-12-28T08:41:11;100133.19;;;8.33;83.17
74633;BME280;63139;52.018;8.552;2022-12-28T08:43:39;100120.69;;;8.35;83.05
74633;BME280;63139;52.018;8.552;2022-12-28T08:46:10;100126.94;;;8.34;83.32
74633;BME280;63139;52.018;8.552;2022-12-28T08:48:39;100137.97;;;8.38;83.11
74633;BME280;63139;52.018;8.552;2022-12-28T08:51:08;100126.94;;;8.42;83.39
74633;BME280;63139;52.018;8.552;2022-12-28T08:53:37;100120.34;;;8.38;83.45
74633;BME280;63139;52.018;8.552;2022-12-28T08:56:09;100129.06;;;8.39;83.66
74633;BME280;63139;52.018;8.552;2022-12-28T08:58:37;100136.53;;;8.43;83.55
74633;BME280;63139;52.018;8.552;2022-12-28T09:01:07;100124.97;;;8.44;83.10
74633;BME280;63139;52.018;8.552;2022-12-28T09:03:36;100132.06;;;8.44;83.19
74633;BME280;63139;52.018;8.552;2022-12-28T09:06:06;100137.84;;;8.47;82.88
74633;BME280;63139;52.018;8.552;2022-12-28T09:08:34;100142.13;;;8.48;83.05
74633;BME280;63139;52.018;8.552;2022-12-28T09:11:04;100137.53;;;8.50;83.10
74633;BME280;63139;52.018;8.552;2022-12-28T09:13:34;100146.06;;;8.52;83.11
74633;BME280;63139;52.018;8.552;2022-12-28T09:16:04;100136.19;;;8.54;83.01
74633;BME280;63139;52.018;8.552;2022-12-28T09:18:33;100137.53;;;8.59;83.17
74633;BME280;63139;52.018;8.552;2022-12-28T09:21:05;100159.28;;;8.61;83.30
74633;BME280;63139;52.018;8.552;2022-12-28T09:23:34;100140.50;;;8.64;83.29
74633;BME280;63139;52.018;8.552;2022-12-28T09:26:04;100146.44;;;8.66;83.34
74633;BME280;63139;52.018;8.552;2022-12-28T09:28:33;100147.28;;;8.66;83.21
74633;BME280;63139;52.018;8.552;2022-12-28T09:31:02;100150.06;;;8.73;83.13
74633;BME280;63139;52.018;8.552;2022-12-28T09:33:30;100151.53;;;8.67;83.06
74633;BME280;63139;52.018;8.552;2022-12-28T09:36:37;100149.72;;;8.76;82.93
74633;BME280;63139;52.018;8.552;2022-12-28T09:39:09;100143.81;;;8.74;83.11
74633;BME280;63139;52.018;8.552;2022-12-28T09:41:43;100139.69;;;8.79;83.10
74633;BME280;63139;52.018;8.552;2022-12-28T09:44:29;100140.34;;;8.81;83.25
74633;BME280;63139;52.018;8.552;2022-12-28T09:47:03;100143.31;;;8.86;83.07
74633;BME280;63139;52.018;8.552;2022-12-28T09:49:42;100146.94;;;8.85;82.76
74633;BME280;63139;52.018;8.552;2022-12-28T09:52:25;100145.59;;;8.89;83.29
74633;BME280;63139;52.018;8.552;2022-12-28T09:55:03;100144.81;;;8.89;83.34
74633;BME280;63139;52.018;8.552;2022-12-28T09:57:36;100140.16;;;8.83;83.29
74633;BME280;63139;52.018;8.552;2022-12-28T10:00:15;100131.09;;;8.85;83.50
74633;BME280;63139;52.018;8.552;2022-12-28T10:02:47;100139.16;;;8.84;83.36
74633;BME280;63139;52.018;8.552;2022-12-28T10:05:16;100132.91;;;8.85;83.37
74633;BME280;63139;52.018;8.552;2022-12-28T10:07:43;100126.47;;;8.87;83.21
74633;BME280;63139;52.018;8.552;2022-12-28T10:10:14;100138.19;;;8.85;83.72
74633;BME280;63139;52.018;8.552;2022-12-28T10:12:44;100116.06;;;8.86;83.55
74633;BME280;63139;52.018;8.552;2022-12-28T10:15:14;100118.41;;;8.89;83.49
74633;BME280;63139;52.018;8.552;2022-12-28T10:17:43;100113.13;;;8.89;83.60
74633;BME280;63139;52.018;8.552;2022-12-28T10:20:15;100110.47;;;8.89;84.00
74633;BME280;63139;52.018;8.552;2022-12-28T10:22:45;100098.44;;;8.86;84.16
74633;BME280;63139;52.018;8.552;2022-12-28T10:25:18;100109.16;;;8.85;84.29
74633;BME280;63139;52.018;8.552;2022-12-28T10:27:46;100100.91;;;8.88;84.84
74633;BME280;63139;52.018;8.552;2022-12-28T10:30:17;100086.88;;;8.95;84.44
74633;BME280;63139;52.018;8.552;2022-12-28T10:32:51;100097.09;;;8.99;84.60
74633;BME280;63139;52.018;8.552;2022-12-28T10:35:28;100088.34;;;8.98;84.51
74633;BME280;63139;52.018;8.552;2022-12-28T10:38:01;100092.47;;;9.01;84.20
74633;BME280;63139;52.018;8.552;2022-12-28T10:40:31;100098.56;;;9.09;83.80
74633;BME280;63139;52.018;8.552;2022-12-28T10:43:00;100084.19;;;9.12;83.62
74633;BME280;63139;52.018;8.552;2022-12-28T10:45:40;100087.31;;;9.15;83.79
74633;BME280;63139;52.018;8.552;2022-12-28T10:48:15;100086.50;;;9.15;83.65
74633;BME280;63139;52.018;8.552;2022-12-28T10:50:50;100091.13;;;9.13;83.96
74633;BME280;63139;52.018;8.552;2022-12-28T10:53:23;100077.44;;;9.09;84.44
74633;BME280;63139;52.018;8.552;2022-12-28T10:56:00;100076.63;;;9.01;84.76
74633;BME280;63139;52.018;8.552;2022-12-28T10:58:28;100069.03;;;8.98;84.82
74633;BME280;63139;52.018;8.552;2022-12-28T11:01:03;100069.38;;;8.94;85.23
74633;BME280;63139;52.018;8.552;2022-12-28T11:03:35;100073.31;;;8.99;85.26
74633;BME280;63139;52.018;8.552;2022-12-28T11:06:09;100061.09;;;8.98;85.72
74633;BME280;63139;52.018;8.552;2022-12-28T11:08:38;100065.09;;;8.93;86.13
74633;BME280;63139;52.018;8.552;2022-12-28T11:11:09;100048.41;;;8.93;85.95
74633;BME280;63139;52.018;8.552;2022-12-28T11:13:44;100061.13;;;8.89;86.42
74633;BME280;63139;52.018;8.552;2022-12-28T11:16:14;100055.84;;;8.89;86.54
74633;BME280;63139;52.018;8.552;2022-12-28T11:18:42;100047.91;;;8.89;86.05
74633;BME280;63139;52.018;8.552;2022-12-28T11:21:16;100044.47;;;8.89;85.35
74633;BME280;63139;52.018;8.552;2022-12-28T11:23:48;100044.13;;;8.92;85.32
74633;BME280;63139;52.018;8.552;2022-12-28T11:26:17;100012.94;;;8.95;85.41
74633;BME280;63139;52.018;8.552;2022-12-28T11:28:47;100037.03;;;9.01;84.74
74633;BME280;63139;52.018;8.552;2022-12-28T11:31:21;100032.53;;;9.09;84.95
74633;BME280;63139;52.018;8.552;2022-12-28T11:33:53;100034.66;;;9.14;84.28
74633;BME280;63139;52.018;8.552;2022-12-28T11:36:23;100029.69;;;9.19;84.18
74633;BME280;63139;52.018;8.552;2022-12-28T11:38:53;100015.50;;;9.20;83.92
74633;BME280;63139;52.018;8.552;2022-12-28T11:41:41;100023.09;;;9.23;83.20
74633;BME280;63139;52.018;8.552;2022-12-28T11:44:50;100010.34;;;9.26;82.38
74633;BME280;63139;52.018;8.552;2022-12-28T11:47:23;100017.94;;;9.29;82.48
74633;BME280;63139;52.018;8.552;2022-12-28T11:53:01;100005.53;;;9.38;81.96
74633;BME280;63139;52.018;8.552;2022-12-28T11:55:47;100006.34;;;9.39;81.37
74633;BME280;63139;52.018;8.552;2022-12-28T11:59:04;100013.25;;;9.48;81.35
74633;BME280;63139;52.018;8.552;2022-12-28T12:01:42;100003.81;;;9.53;81.20
74633;BME280;63139;52.018;8.552;2022-12-28T12:04:42;100001.63;;;9.57;80.52
74633;BME280;63139;52.018;8.552;2022-12-28T12:07:18;100002.56;;;9.64;81.02
74633;BME280;63139;52.018;8.552;2022-12-28T12:10:20;99998.78;;;9.66;79.90
74633;BME280;63139;52.018;8.552;2022-12-28T12:12:53;100001.41;;;9.66;80.33
74633;BME280;63139;52.018;8.552;2022-12-28T12:15:32;99996.41;;;9.71;80.17
74633;BME280;63139;52.018;8.552;2022-12-28T12:18:02;99996.41;;;9.71;80.41
74633;BME280;63139;52.018;8.552;2022-12-28T12:20:50;99993.97;;;9.70;79.74
74633;BME280;63139;52.018;8.552;2022-12-28T12:23:27;99992.16;;;9.70;79.63
74633;BME280;63139;52.018;8.552;2022-12-28T12:25:57;99990.47;;;9.78;79.94
74633;BME280;63139;52.018;8.552;2022-12-28T12:28:31;99983.97;;;9.80;79.50
74633;BME280;63139;52.018;8.552;2022-12-28T12:31:02;99990.09;;;9.81;79.45
74633;BME280;63139;52.018;8.552;2022-12-28T12:33:34;99983.47;;;9.85;79.58
74633;BME280;63139;52.018;8.552;2022-12-28T12:36:15;99975.16;;;9.88;79.20
74633;BME280;63139;52.018;8.552;2022-12-28T12:39:10;99978.91;;;9.93;78.81
74633;BME280;63139;52.018;8.552;2022-12-28T12:41:48;99969.66;;;9.97;78.46
74633;BME280;63139;52.018;8.552;2022-12-28T12:44:27;99972.97;;;9.99;78.69
74633;BME280;63139;52.018;8.552;2022-12-28T12:47:45;99973.25;;;10.04;78.64
74633;BME280;63139;52.018;8.552;2022-12-28T12:53:25;99952.84;;;10.13;78.23
74633;BME280;63139;52.018;8.552;2022-12-28T12:56:03;99942.72;;;10.17;77.90
74633;BME280;63139;52.018;8.552;2022-12-28T12:58:35;99953.97;;;10.19;77.58
74633;BME280;63139;52.018;8.552;2022-12-28T13:01:23;99949.50;;;10.19;78.14
74633;BME280;63139;52.018;8.552;2022-12-28T13:04:05;99950.34;;;10.20;77.83
74633;BME280;63139;52.018;8.552;2022-12-28T13:06:36;99945.69;;;10.22;78.24
74633;BME280;63139;52.018;8.552;2022-12-28T13:09:14;99945.88;;;10.20;78.27
74633;BME280;63139;52.018;8.552;2022-12-28T13:11:43;99945.56;;;10.15;77.89
74633;BME280;63139;52.018;8.552;2022-12-28T13:14:16;99944.91;;;10.13;77.80
74633;BME280;63139;52.018;8.552;2022-12-28T13:16:47;99939.97;;;10.10;77.52
74633;BME280;63139;52.018;8.552;2022-12-28T13:19:18;99940.94;;;10.09;77.73
74633;BME280;63139;52.018;8.552;2022-12-28T13:21:47;99943.44;;;10.10;78.38
74633;BME280;63139;52.018;8.552;2022-12-28T13:24:21;99934.38;;;10.05;78.26
74633;BME280;63139;52.018;8.552;2022-12-28T13:26:49;99938.84;;;10.04;78.26
74633;BME280;63139;52.018;8.552;2022-12-28T13:29:19;99937.22;;;10.03;78.50
74633;BME280;63139;52.018;8.552;2022-12-28T13:31:48;99940.03;;;10.02;78.48
74633;BME280;63139;52.018;8.552;2022-12-28T13:34:20;99928.63;;;10.01;77.79
74633;BME280;63139;52.018;8.552;2022-12-28T13:36:50;99922.06;;;9.97;77.95
74633;BME280;63139;52.018;8.552;2022-12-28T13:39:21;99923.06;;;9.96;78.32